Date,TemperatureHighF,TemperatureAvgF,TemperatureLowF,DewpointHighF,DewpointAvgF,DewpointLowF,HumidityHigh,HumidityAvg,HumidityLow,PressureMaxIn,PressureMinIn,WindSpeedMaxMPH,WindSpeedAvgMPH,GustSpeedMaxMPH,PrecipitationSumIn
2013-1-1,42.2,32.4,26.7,32.0,26.3,21.0,89,79,48,30.35,30.22,3,0,6,0.01
2013-1-2,39.5,32.7,29.0,29.0,25.3,21.0,86,74,60,30.25,30.18,3,0,5,0.00
2013-1-3,41.7,34.4,31.9,29.0,23.9,20.0,71,66,53,30.31,30.19,3,1,5,0.00
2013-1-4,41.2,34.5,31.6,26.0,21.0,17.0,65,58,43,30.39,30.30,3,2,4,0.00
2013-1-5,44.6,36.5,33.9,30.0,23.2,19.0,68,59,49,30.40,30.27,2,1,4,0.00
2013-1-6,38.3,34.1,30.6,31.0,27.1,20.0,96,77,54,30.27,30.04,3,0,10,0.00
2013-1-7,52.3,40.9,28.6,30.0,19.0,7.0,96,49,17,30.16,30.01,17,4,30,0.10
2013-1-8,48.7,42.3,36.9,35.0,30.1,21.0,71,63,47,30.24,30.08,4,3,7,0.00
2013-1-9,59.2,47.2,41.5,38.0,32.3,27.0,69,58,33,30.23,29.98,5,2,10,0.00
2013-1-10,41.7,32.8,25.5,36.0,28.1,18.0,96,84,55,30.07,29.84,8,1,20,0.21
2013-1-11,33.3,27.1,22.9,22.0,16.4,9.0,82,65,46,30.21,30.06,6,1,14,0.00
2013-1-12,34.0,24.4,20.0,20.0,15.2,12.0,84,69,42,30.26,30.12,6,1,10,0.00
2013-1-13,35.1,25.1,20.1,18.0,12.3,8.0,74,60,34,30.27,30.17,6,1,8,0.01
2013-1-14,40.5,28.6,16.8,12.0,3.3,-14.0,75,40,11,30.40,30.24,15,3,28,0.00
2013-1-15,42.6,31.2,23.9,25.0,16.2,2.0,73,55,30,30.51,30.36,16,2,16,0.02
2013-1-16,45.8,37.1,32.9,31.0,27.5,25.0,75,69,51,30.48,30.30,4,2,5,0.04
2013-1-17,48.1,40.0,36.7,31.0,25.6,21.0,65,57,41,30.34,30.25,4,3,5,0.00
2013-1-18,50.4,42.2,39.1,32.0,24.8,20.0,59,51,40,30.29,30.21,4,3,5,0.00
2013-1-19,51.4,42.5,39.3,31.0,22.1,17.0,54,45,36,30.32,30.23,4,3,5,0.00
2013-1-20,53.9,43.5,40.4,30.0,20.7,14.0,49,41,33,30.27,30.15,4,3,5,0.00
2013-1-21,57.0,43.8,39.9,28.0,19.6,13.0,46,38,23,30.23,30.15,4,3,5,0.00
2013-1-22,61.8,47.8,40.9,31.0,21.7,11.0,48,36,17,30.24,30.14,4,2,7,0.00
2013-1-23,64.3,55.6,49.5,42.0,33.2,28.0,74,44,29,30.18,30.07,8,2,17,0.03
2013-1-24,52.0,47.3,42.8,50.0,45.5,37.0,98,93,69,30.19,30.05,4,1,13,0.68
2013-1-25,53.3,47.9,45.4,51.0,46.4,42.0,97,95,66,30.20,29.97,7,1,13,0.61
2013-1-26,51.6,46.8,44.0,49.0,46.1,44.0,98,97,89,29.98,29.90,4,0,8,0.12
2013-1-27,44.1,38.9,31.7,44.0,36.6,30.0,98,91,71,30.00,29.93,7,0,13,0.03
2013-1-28,37.3,30.3,27.1,29.0,24.7,18.0,96,81,50,30.26,30.00,11,1,16,0.08
2013-1-29,55.4,34.6,27.0,36.0,28.2,22.0,93,79,33,30.32,30.23,9,1,20,0.06
2013-1-30,53.0,40.9,36.1,39.0,33.8,29.0,85,76,47,30.43,30.31,3,1,12,0.00
2013-1-31,56.7,43.9,39.4,40.0,35.0,32.0,79,72,44,30.34,30.22,3,0,4,0.00